sensor_id;sensor_type;location;lat;lon;timestamp;P1;durP1;ratioP1;P2;durP2;ratioP2
48861;SDS011;34681;49.188;-0.374;2022-07-29T00:00:36;4.43;;;4.07;;
48861;SDS011;34681;49.188;-0.374;2022-07-29T00:03:02;4.40;;;4.00;;
48861;SDS011;34681;49.188;-0.374;2022-07-29T00:05:27;5.63;;;4.50;;
48861;SDS011;34681;49.188;-0.374;2022-07-29T00:07:53;6.60;;;4.70;;
48861;SDS011;34681;49.188;-0.374;2022-07-29T00:10:18;8.10;;;4.30;;
48861;SDS011;34681;49.188;-0.374;2022-07-29T00:12:43;4.50;;;4.10;;
48861;SDS011;34681;49.188;-0.374;2022-07-29T00:15:09;4.10;;;3.70;;
48861;SDS011;34681;49.188;-0.374;2022-07-29T00:17:34;6.77;;;4.47;;
48861;SDS011;34681;49.188;-0.374;2022-07-29T00:20:00;4.97;;;4.47;;
48861;SDS011;34681;49.188;-0.374;2022-07-29T00:22:25;8.80;;;5.87;;
48861;SDS011;34681;49.188;-0.374;2022-07-29T00:24:50;7.30;;;4.77;;
48861;SDS011;34681;49.188;-0.374;2022-07-29T00:27:16;7.23;;;4.40;;
48861;SDS011;34681;49.188;-0.374;2022-07-29T00:29:42;4.47;;;4.10;;
48861;SDS011;34681;49.188;-0.374;2022-07-29T00:32:07;4.20;;;3.90;;
48861;SDS011;34681;49.188;-0.374;2022-07-29T00:34:33;5.43;;;3.80;;
48861;SDS011;34681;49.188;-0.374;2022-07-29T00:37:16;4.23;;;3.87;;
48861;SDS011;34681;49.188;-0.374;2022-07-29T00:39:42;3.90;;;3.60;;
48861;SDS011;34681;49.188;-0.374;2022-07-29T00:42:07;4.50;;;3.73;;
48861;SDS011;34681;49.188;-0.374;2022-07-29T00:44:37;3.73;;;3.43;;
48861;SDS011;34681;49.188;-0.374;2022-07-29T00:47:06;4.13;;;3.73;;
48861;SDS011;34681;49.188;-0.374;2022-07-29T00:49:32;4.33;;;4.03;;
48861;SDS011;34681;49.188;-0.374;2022-07-29T00:52:00;3.97;;;3.70;;
48861;SDS011;34681;49.188;-0.374;2022-07-29T00:54:27;4.73;;;3.50;;
48861;SDS011;34681;49.188;-0.374;2022-07-29T00:56:54;4.00;;;3.70;;
48861;SDS011;34681;49.188;-0.374;2022-07-29T00:59:21;5.20;;;4.13;;
48861;SDS011;34681;49.188;-0.374;2022-07-29T01:01:46;4.00;;;3.60;;
48861;SDS011;34681;49.188;-0.374;2022-07-29T01:04:12;3.50;;;3.30;;
48861;SDS011;34681;49.188;-0.374;2022-07-29T01:06:37;4.23;;;3.43;;
48861;SDS011;34681;49.188;-0.374;2022-07-29T01:09:02;3.83;;;3.63;;
48861;SDS011;34681;49.188;-0.374;2022-07-29T01:11:28;3.73;;;3.43;;
48861;SDS011;34681;49.188;-0.374;2022-07-29T01:13:54;3.10;;;3.00;;
48861;SDS011;34681;49.188;-0.374;2022-07-29T01:16:29;5.03;;;3.07;;
48861;SDS011;34681;49.188;-0.374;2022-07-29T01:19:00;5.33;;;3.23;;
48861;SDS011;34681;49.188;-0.374;2022-07-29T01:21:45;3.50;;;3.20;;
48861;SDS011;34681;49.188;-0.374;2022-07-29T01:26:59;3.53;;;3.33;;
48861;SDS011;34681;49.188;-0.374;2022-07-29T01:29:57;3.53;;;3.23;;
48861;SDS011;34681;49.188;-0.374;2022-07-29T01:32:29;3.93;;;3.63;;
48861;SDS011;34681;49.188;-0.374;2022-07-29T01:37:38;5.10;;;3.40;;
48861;SDS011;34681;49.188;-0.374;2022-07-29T01:40:11;3.80;;;3.50;;
48861;SDS011;34681;49.188;-0.374;2022-07-29T01:42:45;3.93;;;3.70;;
48861;SDS011;34681;49.188;-0.374;2022-07-29T01:45:27;3.63;;;3.33;;
48861;SDS011;34681;49.188;-0.374;2022-07-29T01:48:02;3.97;;;3.67;;
48861;SDS011;34681;49.188;-0.374;2022-07-29T01:50:33;4.50;;;4.20;;
48861;SDS011;34681;49.188;-0.374;2022-07-29T01:53:02;4.23;;;3.80;;
48861;SDS011;34681;49.188;-0.374;2022-07-29T01:55:32;4.27;;;3.70;;
48861;SDS011;34681;49.188;-0.374;2022-07-29T01:58:04;4.07;;;3.73;;
48861;SDS011;34681;49.188;-0.374;2022-07-29T02:00:31;4.67;;;4.27;;
48861;SDS011;34681;49.188;-0.374;2022-07-29T02:02:59;4.10;;;3.90;;
48861;SDS011;34681;49.188;-0.374;2022-07-29T02:05:29;5.70;;;3.43;;
48861;SDS011;34681;49.188;-0.374;2022-07-29T02:07:57;3.77;;;3.43;;
48861;SDS011;34681;49.188;-0.374;2022-07-29T02:10:28;3.90;;;3.60;;
48861;SDS011;34681;49.188;-0.374;2022-07-29T02:12:56;4.10;;;3.60;;
48861;SDS011;34681;49.188;-0.374;2022-07-29T02:15:24;4.40;;;4.00;;
48861;SDS011;34681;49.188;-0.374;2022-07-29T02:17:55;3.80;;;3.50;;
48861;SDS011;34681;49.188;-0.374;2022-07-29T02:20:24;4.00;;;3.70;;
48861;SDS011;34681;49.188;-0.374;2022-07-29T02:22:51;3.63;;;3.43;;
48861;SDS011;34681;49.188;-0.374;2022-07-29T02:25:18;3.00;;;2.80;;
48861;SDS011;34681;49.188;-0.374;2022-07-29T02:27:45;4.13;;;3.20;;
48861;SDS011;34681;49.188;-0.374;2022-07-29T02:30:13;3.43;;;3.13;;
48861;SDS011;34681;49.188;-0.374;2022-07-29T02:32:39;3.37;;;3.07;;
48861;SDS011;34681;49.188;-0.374;2022-07-29T02:35:07;3.27;;;3.00;;
48861;SDS011;34681;49.188;-0.374;2022-07-29T02:37:34;3.37;;;3.03;;
48861;SDS011;34681;49.188;-0.374;2022-07-29T02:40:01;2.97;;;2.77;;
48861;SDS011;34681;49.188;-0.374;2022-07-29T02:42:27;3.30;;;3.00;;
48861;SDS011;34681;49.188;-0.374;2022-07-29T02:44:54;3.60;;;3.40;;
48861;SDS011;34681;49.188;-0.374;2022-07-29T02:47:36;6.53;;;3.20;;
48861;SDS011;34681;49.188;-0.374;2022-07-29T02:50:09;2.80;;;2.60;;
48861;SDS011;34681;49.188;-0.374;2022-07-29T02:52:41;3.13;;;2.93;;
48861;SDS011;34681;49.188;-0.374;2022-07-29T02:57:47;3.60;;;3.00;;
48861;SDS011;34681;49.188;-0.374;2022-07-29T03:00:19;3.20;;;3.00;;
48861;SDS011;34681;49.188;-0.374;2022-07-29T03:02:48;3.57;;;3.37;;
48861;SDS011;34681;49.188;-0.374;2022-07-29T03:05:18;2.80;;;2.60;;
48861;SDS011;34681;49.188;-0.374;2022-07-29T03:07:46;3.07;;;2.87;;
48861;SDS011;34681;49.188;-0.374;2022-07-29T03:10:16;3.27;;;2.97;;
48861;SDS011;34681;49.188;-0.374;2022-07-29T03:12:41;3.10;;;2.90;;
48861;SDS011;34681;49.188;-0.374;2022-07-29T03:15:08;2.80;;;2.60;;
48861;SDS011;34681;49.188;-0.374;2022-07-29T03:17:34;5.60;;;3.33;;
48861;SDS011;34681;49.188;-0.374;2022-07-29T03:20:00;3.13;;;2.83;;
48861;SDS011;34681;49.188;-0.374;2022-07-29T03:22:26;3.13;;;2.93;;
48861;SDS011;34681;49.188;-0.374;2022-07-29T03:24:52;2.93;;;2.70;;
48861;SDS011;34681;49.188;-0.374;2022-07-29T03:27:17;3.40;;;3.20;;
48861;SDS011;34681;49.188;-0.374;2022-07-29T03:29:43;6.20;;;3.07;;
48861;SDS011;34681;49.188;-0.374;2022-07-29T03:32:08;3.00;;;2.80;;
48861;SDS011;34681;49.188;-0.374;2022-07-29T03:34:33;4.00;;;3.13;;
48861;SDS011;34681;49.188;-0.374;2022-07-29T03:36:59;2.83;;;2.63;;
48861;SDS011;34681;49.188;-0.374;2022-07-29T03:39:25;3.67;;;3.37;;
48861;SDS011;34681;49.188;-0.374;2022-07-29T03:41:55;4.37;;;2.67;;
48861;SDS011;34681;49.188;-0.374;2022-07-29T03:44:23;2.93;;;2.73;;
48861;SDS011;34681;49.188;-0.374;2022-07-29T03:46:51;3.10;;;2.90;;
48861;SDS011;34681;49.188;-0.374;2022-07-29T03:49:20;2.80;;;2.60;;
48861;SDS011;34681;49.188;-0.374;2022-07-29T03:51:47;3.97;;;2.90;;
48861;SDS011;34681;49.188;-0.374;2022-07-29T03:54:12;3.17;;;2.90;;
48861;SDS011;34681;49.188;-0.374;2022-07-29T03:56:42;3.07;;;2.90;;
48861;SDS011;34681;49.188;-0.374;2022-07-29T03:59:12;3.40;;;3.20;;
48861;SDS011;34681;49.188;-0.374;2022-07-29T04:01:39;3.13;;;2.93;;
48861;SDS011;34681;49.188;-0.374;2022-07-29T04:04:06;3.90;;;3.10;;
48861;SDS011;34681;49.188;-0.374;2022-07-29T04:06:41;2.93;;;2.83;;
48861;SDS011;34681;49.188;-0.374;2022-07-29T04:09:09;2.83;;;2.63;;
48861;SDS011;34681;49.188;-0.374;2022-07-29T04:11:35;3.00;;;2.80;;
48861;SDS011;34681;49.188;-0.374;2022-07-29T04:14:01;3.50;;;3.27;;
48861;SDS011;34681;49.188;-0.374;2022-07-29T04:16:27;3.33;;;3.03;;
48861;SDS011;34681;49.188;-0.374;2022-07-29T04:18:52;3.83;;;2.73;;
48861;SDS011;34681;49.188;-0.374;2022-07-29T04:21:18;6.07;;;2.83;;
48861;SDS011;34681;49.188;-0.374;2022-07-29T04:23:43;3.20;;;2.97;;
48861;SDS011;34681;49.188;-0.374;2022-07-29T04:26:10;3.50;;;3.20;;
48861;SDS011;34681;49.188;-0.374;2022-07-29T04:28:35;3.17;;;2.70;;
48861;SDS011;34681;49.188;-0.374;2022-07-29T04:31:01;2.63;;;2.53;;
48861;SDS011;34681;49.188;-0.374;2022-07-29T04:33:26;3.73;;;3.10;;
48861;SDS011;34681;49.188;-0.374;2022-07-29T04:35:52;3.83;;;2.93;;
48861;SDS011;34681;49.188;-0.374;2022-07-29T04:38:17;3.70;;;3.40;;
48861;SDS011;34681;49.188;-0.374;2022-07-29T04:40:43;3.67;;;3.03;;
48861;SDS011;34681;49.188;-0.374;2022-07-29T04:43:11;2.73;;;2.53;;
48861;SDS011;34681;49.188;-0.374;2022-07-29T04:45:36;3.40;;;3.10;;
48861;SDS011;34681;49.188;-0.374;2022-07-29T04:48:02;3.13;;;2.93;;
48861;SDS011;34681;49.188;-0.374;2022-07-29T04:50:28;4.60;;;2.80;;
48861;SDS011;34681;49.188;-0.374;2022-07-29T04:52:53;3.40;;;2.80;;
48861;SDS011;34681;49.188;-0.374;2022-07-29T04:55:19;5.10;;;3.03;;
48861;SDS011;34681;49.188;-0.374;2022-07-29T04:57:44;3.27;;;2.53;;
48861;SDS011;34681;49.188;-0.374;2022-07-29T05:00:09;3.03;;;2.83;;
48861;SDS011;34681;49.188;-0.374;2022-07-29T05:02:35;3.03;;;2.83;;
48861;SDS011;34681;49.188;-0.374;2022-07-29T05:05:01;3.53;;;3.23;;
48861;SDS011;34681;49.188;-0.374;2022-07-29T05:07:26;3.77;;;3.40;;
48861;SDS011;34681;49.188;-0.374;2022-07-29T05:09:51;3.43;;;2.93;;
48861;SDS011;34681;49.188;-0.374;2022-07-29T05:12:17;5.50;;;3.43;;
48861;SDS011;34681;49.188;-0.374;2022-07-29T05:14:43;3.63;;;3.20;;
48861;SDS011;34681;49.188;-0.374;2022-07-29T05:17:08;2.87;;;2.67;;
48861;SDS011;34681;49.188;-0.374;2022-07-29T05:19:34;6.00;;;3.67;;
48861;SDS011;34681;49.188;-0.374;2022-07-29T05:21:59;3.97;;;2.67;;
48861;SDS011;34681;49.188;-0.374;2022-07-29T05:24:25;3.67;;;3.37;;
48861;SDS011;34681;49.188;-0.374;2022-07-29T05:26:50;2.93;;;2.73;;
48861;SDS011;34681;49.188;-0.374;2022-07-29T05:29:15;3.10;;;2.90;;
48861;SDS011;34681;49.188;-0.374;2022-07-29T05:31:41;3.20;;;3.00;;
48861;SDS011;34681;49.188;-0.374;2022-07-29T05:34:06;4.30;;;2.90;;
48861;SDS011;34681;49.188;-0.374;2022-07-29T05:36:31;5.73;;;3.20;;
48861;SDS011;34681;49.188;-0.374;2022-07-29T05:38:57;2.60;;;2.40;;
48861;SDS011;34681;49.188;-0.374;2022-07-29T05:41:22;3.67;;;3.40;;
48861;SDS011;34681;49.188;-0.374;2022-07-29T05:43:48;3.10;;;2.90;;
48861;SDS011;34681;49.188;-0.374;2022-07-29T05:46:13;3.63;;;3.33;;
48861;SDS011;34681;49.188;-0.374;2022-07-29T05:48:41;3.07;;;2.80;;
48861;SDS011;34681;49.188;-0.374;2022-07-29T05:51:06;4.23;;;3.10;;
48861;SDS011;34681;49.188;-0.374;2022-07-29T05:53:32;5.53;;;3.27;;
48861;SDS011;34681;49.188;-0.374;2022-07-29T05:55:57;4.50;;;3.37;;
48861;SDS011;34681;49.188;-0.374;2022-07-29T05:58:22;3.10;;;2.80;;
48861;SDS011;34681;49.188;-0.374;2022-07-29T06:00:48;3.27;;;2.90;;
48861;SDS011;34681;49.188;-0.374;2022-07-29T06:03:14;3.37;;;3.07;;
48861;SDS011;34681;49.188;-0.374;2022-07-29T06:05:39;5.37;;;2.97;;
48861;SDS011;34681;49.188;-0.374;2022-07-29T06:08:05;6.80;;;3.13;;
48861;SDS011;34681;49.188;-0.374;2022-07-29T06:10:32;2.80;;;2.60;;
48861;SDS011;34681;49.188;-0.374;2022-07-29T06:12:57;7.20;;;3.10;;
48861;SDS011;34681;49.188;-0.374;2022-07-29T06:15:23;4.97;;;3.20;;
48861;SDS011;34681;49.188;-0.374;2022-07-29T06:17:48;4.60;;;3.90;;
48861;SDS011;34681;49.188;-0.374;2022-07-29T06:20:14;4.07;;;3.77;;
48861;SDS011;34681;49.188;-0.374;2022-07-29T06:22:39;4.30;;;3.50;;
48861;SDS011;34681;49.188;-0.374;2022-07-29T06:25:05;4.27;;;3.87;;
48861;SDS011;34681;49.188;-0.374;2022-07-29T06:27:30;4.67;;;3.73;;
48861;SDS011;34681;49.188;-0.374;2022-07-29T06:29:56;5.80;;;4.00;;
48861;SDS011;34681;49.188;-0.374;2022-07-29T06:32:21;3.40;;;3.20;;
48861;SDS011;34681;49.188;-0.374;2022-07-29T06:34:47;4.97;;;4.00;;
48861;SDS011;34681;49.188;-0.374;2022-07-29T06:37:13;6.07;;;4.77;;
48861;SDS011;34681;49.188;-0.374;2022-07-29T06:39:39;6.30;;;4.40;;
48861;SDS011;34681;49.188;-0.374;2022-07-29T06:42:05;4.93;;;4.30;;
48861;SDS011;34681;49.188;-0.374;2022-07-29T06:44:34;4.60;;;4.30;;
48861;SDS011;34681;49.188;-0.374;2022-07-29T06:47:00;4.00;;;3.60;;
48861;SDS011;34681;49.188;-0.374;2022-07-29T06:49:26;4.70;;;4.37;;
48861;SDS011;34681;49.188;-0.374;2022-07-29T06:51:52;5.40;;;4.27;;
48861;SDS011;34681;49.188;-0.374;2022-07-29T06:54:18;5.70;;;4.20;;
48861;SDS011;34681;49.188;-0.374;2022-07-29T06:56:43;7.83;;;4.43;;
48861;SDS011;34681;49.188;-0.374;2022-07-29T06:59:10;4.00;;;3.63;;
48861;SDS011;34681;49.188;-0.374;2022-07-29T07:01:36;5.40;;;4.27;;
48861;SDS011;34681;49.188;-0.374;2022-07-29T07:04:04;4.53;;;4.13;;
48861;SDS011;34681;49.188;-0.374;2022-07-29T07:06:29;4.50;;;4.10;;
48861;SDS011;34681;49.188;-0.374;2022-07-29T07:08:54;4.57;;;4.27;;
48861;SDS011;34681;49.188;-0.374;2022-07-29T07:11:20;7.03;;;4.07;;
48861;SDS011;34681;49.188;-0.374;2022-07-29T07:13:45;5.50;;;4.13;;
48861;SDS011;34681;49.188;-0.374;2022-07-29T07:16:10;4.90;;;3.70;;
48861;SDS011;34681;49.188;-0.374;2022-07-29T07:18:36;6.40;;;4.50;;
48861;SDS011;34681;49.188;-0.374;2022-07-29T07:21:01;5.70;;;4.20;;
48861;SDS011;34681;49.188;-0.374;2022-07-29T07:23:27;6.90;;;4.27;;
48861;SDS011;34681;49.188;-0.374;2022-07-29T07:25:52;8.47;;;3.93;;
48861;SDS011;34681;49.188;-0.374;2022-07-29T07:28:18;6.93;;;3.30;;
48861;SDS011;34681;49.188;-0.374;2022-07-29T07:30:44;11.40;;;4.23;;
48861;SDS011;34681;49.188;-0.374;2022-07-29T07:33:10;9.07;;;3.73;;
48861;SDS011;34681;49.188;-0.374;2022-07-29T07:35:35;10.63;;;4.53;;
48861;SDS011;34681;49.188;-0.374;2022-07-29T07:38:00;6.23;;;2.90;;
48861;SDS011;34681;49.188;-0.374;2022-07-29T07:40:26;5.57;;;3.40;;
48861;SDS011;34681;49.188;-0.374;2022-07-29T07:42:51;3.67;;;3.37;;
48861;SDS011;34681;49.188;-0.374;2022-07-29T07:45:17;3.43;;;3.13;;
48861;SDS011;34681;49.188;-0.374;2022-07-29T07:47:42;4.10;;;2.70;;
48861;SDS011;34681;49.188;-0.374;2022-07-29T07:50:09;5.40;;;2.73;;
48861;SDS011;34681;49.188;-0.374;2022-07-29T07:52:45;3.60;;;2.63;;
48861;SDS011;34681;49.188;-0.374;2022-07-29T07:55:12;4.30;;;3.40;;
48861;SDS011;34681;49.188;-0.374;2022-07-29T07:57:37;6.93;;;2.87;;
48861;SDS011;34681;49.188;-0.374;2022-07-29T08:00:03;4.80;;;3.27;;
48861;SDS011;34681;49.188;-0.374;2022-07-29T08:02:29;3.70;;;2.47;;
48861;SDS011;34681;49.188;-0.374;2022-07-29T08:04:54;5.07;;;3.43;;
48861;SDS011;34681;49.188;-0.374;2022-07-29T08:07:20;4.33;;;3.33;;
48861;SDS011;34681;49.188;-0.374;2022-07-29T08:09:45;3.50;;;3.20;;
48861;SDS011;34681;49.188;-0.374;2022-07-29T08:12:10;2.63;;;2.47;;
48861;SDS011;34681;49.188;-0.374;2022-07-29T08:14:36;5.20;;;3.13;;
48861;SDS011;34681;49.188;-0.374;2022-07-29T08:17:01;5.70;;;3.10;;
48861;SDS011;34681;49.188;-0.374;2022-07-29T08:19:27;8.13;;;3.50;;
48861;SDS011;34681;49.188;-0.374;2022-07-29T08:21:52;4.00;;;3.37;;
48861;SDS011;34681;49.188;-0.374;2022-07-29T08:24:18;3.77;;;2.87;;
48861;SDS011;34681;49.188;-0.374;2022-07-29T08:27:03;7.03;;;3.20;;
48861;SDS011;34681;49.188;-0.374;2022-07-29T08:29:28;3.10;;;2.60;;
48861;SDS011;34681;49.188;-0.374;2022-07-29T08:31:54;5.90;;;2.77;;
48861;SDS011;34681;49.188;-0.374;2022-07-29T08:34:19;4.27;;;3.47;;
48861;SDS011;34681;49.188;-0.374;2022-07-29T08:36:44;10.90;;;3.73;;
48861;SDS011;34681;49.188;-0.374;2022-07-29T08:39:10;2.80;;;2.60;;
48861;SDS011;34681;49.188;-0.374;2022-07-29T08:41:35;4.63;;;2.87;;
48861;SDS011;34681;49.188;-0.374;2022-07-29T08:44:01;3.00;;;2.60;;
48861;SDS011;34681;49.188;-0.374;2022-07-29T08:46:26;4.73;;;3.37;;
48861;SDS011;34681;49.188;-0.374;2022-07-29T08:48:52;7.33;;;3.10;;
48861;SDS011;34681;49.188;-0.374;2022-07-29T08:51:18;8.30;;;3.57;;
48861;SDS011;34681;49.188;-0.374;2022-07-29T08:53:45;8.60;;;3.77;;
48861;SDS011;34681;49.188;-0.374;2022-07-29T08:56:13;10.27;;;3.70;;
48861;SDS011;34681;49.188;-0.374;2022-07-29T08:58:39;6.97;;;3.80;;
48861;SDS011;34681;49.188;-0.374;2022-07-29T09:01:06;7.67;;;3.50;;
48861;SDS011;34681;49.188;-0.374;2022-07-29T09:03:32;7.97;;;3.30;;
48861;SDS011;34681;49.188;-0.374;2022-07-29T09:06:00;4.00;;;3.30;;
48861;SDS011;34681;49.188;-0.374;2022-07-29T09:08:26;3.20;;;2.53;;
48861;SDS011;34681;49.188;-0.374;2022-07-29T09:10:52;5.53;;;3.20;;
48861;SDS011;34681;49.188;-0.374;2022-07-29T09:13:18;5.73;;;2.93;;
48861;SDS011;34681;49.188;-0.374;2022-07-29T09:15:44;4.43;;;3.27;;
48861;SDS011;34681;49.188;-0.374;2022-07-29T09:18:10;4.00;;;2.27;;
48861;SDS011;34681;49.188;-0.374;2022-07-29T09:20:35;5.63;;;2.60;;
48861;SDS011;34681;49.188;-0.374;2022-07-29T09:23:20;4.03;;;2.40;;
48861;SDS011;34681;49.188;-0.374;2022-07-29T09:25:46;7.23;;;2.50;;
48861;SDS011;34681;49.188;-0.374;2022-07-29T09:28:13;4.63;;;2.80;;
48861;SDS011;34681;49.188;-0.374;2022-07-29T09:30:51;3.30;;;3.00;;
48861;SDS011;34681;49.188;-0.374;2022-07-29T09:33:18;3.90;;;2.27;;
48861;SDS011;34681;49.188;-0.374;2022-07-29T09:35:43;6.50;;;2.57;;
48861;SDS011;34681;49.188;-0.374;2022-07-29T09:38:09;3.67;;;3.10;;
48861;SDS011;34681;49.188;-0.374;2022-07-29T09:40:36;4.97;;;2.27;;
48861;SDS011;34681;49.188;-0.374;2022-07-29T09:43:09;3.70;;;2.27;;
48861;SDS011;34681;49.188;-0.374;2022-07-29T09:45:36;5.57;;;3.00;;
48861;SDS011;34681;49.188;-0.374;2022-07-29T09:48:45;5.83;;;2.47;;
48861;SDS011;34681;49.188;-0.374;2022-07-29T09:50:51;9.30;;;2.43;;
48861;SDS011;34681;49.188;-0.374;2022-07-29T09:55:59;2.97;;;2.27;;
48861;SDS011;34681;49.188;-0.374;2022-07-29T09:58:25;3.60;;;2.40;;
48861;SDS011;34681;49.188;-0.374;2022-07-29T10:00:51;2.43;;;2.10;;
48861;SDS011;34681;49.188;-0.374;2022-07-29T10:03:18;4.57;;;2.47;;
48861;SDS011;34681;49.188;-0.374;2022-07-29T10:05:44;2.50;;;2.00;;
48861;SDS011;34681;49.188;-0.374;2022-07-29T10:08:11;5.10;;;2.03;;
48861;SDS011;34681;49.188;-0.374;2022-07-29T10:10:38;4.33;;;2.30;;
48861;SDS011;34681;49.188;-0.374;2022-07-29T10:13:10;4.03;;;2.23;;
48861;SDS011;34681;49.188;-0.374;2022-07-29T10:15:40;4.90;;;2.07;;
48861;SDS011;34681;49.188;-0.374;2022-07-29T10:18:08;5.70;;;2.00;;
48861;SDS011;34681;49.188;-0.374;2022-07-29T10:20:35;2.63;;;2.47;;
48861;SDS011;34681;49.188;-0.374;2022-07-29T10:23:02;2.47;;;2.27;;
48861;SDS011;34681;49.188;-0.374;2022-07-29T10:25:27;3.27;;;2.23;;
48861;SDS011;34681;49.188;-0.374;2022-07-29T10:27:53;3.20;;;2.33;;
48861;SDS011;34681;49.188;-0.374;2022-07-29T10:30:20;3.93;;;2.20;;
48861;SDS011;34681;49.188;-0.374;2022-07-29T10:41:33;6.57;;;2.47;;
48861;SDS011;34681;49.188;-0.374;2022-07-29T10:44:23;5.57;;;3.20;;
48861;SDS011;34681;49.188;-0.374;2022-07-29T10:46:51;8.30;;;2.50;;
48861;SDS011;34681;49.188;-0.374;2022-07-29T10:49:17;3.10;;;1.90;;
48861;SDS011;34681;49.188;-0.374;2022-07-29T10:54:17;5.73;;;2.20;;
48861;SDS011;34681;49.188;-0.374;2022-07-29T10:56:44;3.63;;;2.27;;
48861;SDS011;34681;49.188;-0.374;2022-07-29T11:01:49;2.30;;;2.10;;
48861;SDS011;34681;49.188;-0.374;2022-07-29T11:04:18;2.90;;;2.70;;
48861;SDS011;34681;49.188;-0.374;2022-07-29T11:07:10;2.20;;;2.10;;
48861;SDS011;34681;49.188;-0.374;2022-07-29T11:09:36;6.57;;;2.30;;
48861;SDS011;34681;49.188;-0.374;2022-07-29T11:12:03;3.47;;;2.33;;
48861;SDS011;34681;49.188;-0.374;2022-07-29T11:17:22;2.13;;;1.93;;
48861;SDS011;34681;49.188;-0.374;2022-07-29T11:19:48;6.93;;;2.30;;
48861;SDS011;34681;49.188;-0.374;2022-07-29T11:22:31;6.17;;;2.60;;
48861;SDS011;34681;49.188;-0.374;2022-07-29T11:25:14;3.13;;;2.53;;
48861;SDS011;34681;49.188;-0.374;2022-07-29T11:27:40;2.93;;;2.43;;
48861;SDS011;34681;49.188;-0.374;2022-07-29T11:30:08;6.00;;;2.20;;
48861;SDS011;34681;49.188;-0.374;2022-07-29T11:32:38;3.37;;;2.00;;
48861;SDS011;34681;49.188;-0.374;2022-07-29T11:35:18;2.67;;;2.43;;
48861;SDS011;34681;49.188;-0.374;2022-07-29T11:43:47;8.30;;;2.70;;
48861;SDS011;34681;49.188;-0.374;2022-07-29T11:46:16;2.50;;;2.30;;
48861;SDS011;34681;49.188;-0.374;2022-07-29T11:49:02;3.10;;;2.47;;
48861;SDS011;34681;49.188;-0.374;2022-07-29T11:51:28;3.97;;;2.47;;
48861;SDS011;34681;49.188;-0.374;2022-07-29T11:53:54;4.20;;;2.30;;
48861;SDS011;34681;49.188;-0.374;2022-07-29T11:56:20;6.10;;;2.70;;
48861;SDS011;34681;49.188;-0.374;2022-07-29T11:58:46;2.87;;;2.60;;
48861;SDS011;34681;49.188;-0.374;2022-07-29T12:01:18;3.60;;;2.13;;
48861;SDS011;34681;49.188;-0.374;2022-07-29T12:03:43;3.43;;;2.57;;
48861;SDS011;34681;49.188;-0.374;2022-07-29T12:06:12;7.93;;;2.90;;
48861;SDS011;34681;49.188;-0.374;2022-07-29T12:08:41;4.90;;;2.83;;
48861;SDS011;34681;49.188;-0.374;2022-07-29T12:11:14;2.83;;;2.37;;
48861;SDS011;34681;49.188;-0.374;2022-07-29T12:13:41;3.67;;;2.60;;
48861;SDS011;34681;49.188;-0.374;2022-07-29T12:16:07;3.90;;;2.27;;
48861;SDS011;34681;49.188;-0.374;2022-07-29T12:18:32;3.23;;;2.63;;
48861;SDS011;34681;49.188;-0.374;2022-07-29T12:20:58;2.63;;;2.00;;
48861;SDS011;34681;49.188;-0.374;2022-07-29T12:23:27;5.40;;;2.70;;
48861;SDS011;34681;49.188;-0.374;2022-07-29T12:25:52;6.50;;;2.50;;
48861;SDS011;34681;49.188;-0.374;2022-07-29T12:28:18;5.33;;;2.83;;
48861;SDS011;34681;49.188;-0.374;2022-07-29T12:30:45;3.00;;;2.30;;
48861;SDS011;34681;49.188;-0.374;2022-07-29T12:33:14;4.67;;;2.40;;
48861;SDS011;34681;49.188;-0.374;2022-07-29T12:35:49;5.33;;;2.60;;
48861;SDS011;34681;49.188;-0.374;2022-07-29T12:38:16;3.00;;;2.40;;
48861;SDS011;34681;49.188;-0.374;2022-07-29T12:40:43;3.07;;;2.70;;
48861;SDS011;34681;49.188;-0.374;2022-07-29T12:45:49;3.07;;;2.80;;
48861;SDS011;34681;49.188;-0.374;2022-07-29T12:48:16;3.60;;;3.30;;
48861;SDS011;34681;49.188;-0.374;2022-07-29T12:50:56;6.70;;;3.97;;
48861;SDS011;34681;49.188;-0.374;2022-07-29T12:53:23;7.83;;;3.37;;
48861;SDS011;34681;49.188;-0.374;2022-07-29T12:55:50;6.33;;;3.40;;
48861;SDS011;34681;49.188;-0.374;2022-07-29T13:01:02;3.53;;;2.30;;
48861;SDS011;34681;49.188;-0.374;2022-07-29T13:04:23;4.60;;;3.20;;
48861;SDS011;34681;49.188;-0.374;2022-07-29T13:06:29;2.90;;;2.70;;
48861;SDS011;34681;49.188;-0.374;2022-07-29T13:09:04;5.37;;;3.37;;
48861;SDS011;34681;49.188;-0.374;2022-07-29T13:11:46;3.83;;;2.70;;
48861;SDS011;34681;49.188;-0.374;2022-07-29T13:14:29;4.03;;;3.50;;
48861;SDS011;34681;49.188;-0.374;2022-07-29T13:17:06;3.47;;;3.17;;
48861;SDS011;34681;49.188;-0.374;2022-07-29T13:19:43;5.73;;;2.83;;
48861;SDS011;34681;49.188;-0.374;2022-07-29T13:22:14;5.37;;;2.80;;
48861;SDS011;34681;49.188;-0.374;2022-07-29T13:24:45;3.83;;;3.10;;
48861;SDS011;34681;49.188;-0.374;2022-07-29T13:27:15;4.23;;;3.60;;
48861;SDS011;34681;49.188;-0.374;2022-07-29T13:29:42;3.20;;;2.30;;
48861;SDS011;34681;49.188;-0.374;2022-07-29T13:32:07;4.67;;;2.17;;
48861;SDS011;34681;49.188;-0.374;2022-07-29T13:34:32;2.70;;;2.53;;
48861;SDS011;34681;49.188;-0.374;2022-07-29T13:36:58;3.73;;;2.50;;
48861;SDS011;34681;49.188;-0.374;2022-07-29T13:39:23;3.33;;;2.40;;
48861;SDS011;34681;49.188;-0.374;2022-07-29T13:41:49;2.80;;;2.07;;
48861;SDS011;34681;49.188;-0.374;2022-07-29T13:44:18;4.97;;;2.47;;
48861;SDS011;34681;49.188;-0.374;2022-07-29T13:46:43;4.43;;;3.20;;
48861;SDS011;34681;49.188;-0.374;2022-07-29T13:49:09;6.07;;;2.13;;
48861;SDS011;34681;49.188;-0.374;2022-07-29T13:51:36;3.93;;;2.57;;
48861;SDS011;34681;49.188;-0.374;2022-07-29T13:54:02;7.30;;;2.03;;
48861;SDS011;34681;49.188;-0.374;2022-07-29T13:56:28;4.70;;;2.40;;
48861;SDS011;34681;49.188;-0.374;2022-07-29T13:58:53;3.60;;;2.20;;
48861;SDS011;34681;49.188;-0.374;2022-07-29T14:01:18;2.83;;;2.37;;
48861;SDS011;34681;49.188;-0.374;2022-07-29T14:03:44;2.17;;;1.93;;
48861;SDS011;34681;49.188;-0.374;2022-07-29T14:06:09;4.73;;;2.20;;
48861;SDS011;34681;49.188;-0.374;2022-07-29T14:08:35;4.80;;;2.10;;
48861;SDS011;34681;49.188;-0.374;2022-07-29T14:11:00;1.97;;;1.80;;
48861;SDS011;34681;49.188;-0.374;2022-07-29T14:13:25;5.83;;;2.33;;
48861;SDS011;34681;49.188;-0.374;2022-07-29T14:15:51;2.40;;;2.30;;
48861;SDS011;34681;49.188;-0.374;2022-07-29T14:18:17;9.13;;;2.70;;
48861;SDS011;34681;49.188;-0.374;2022-07-29T14:20:42;3.40;;;2.17;;
48861;SDS011;34681;49.188;-0.374;2022-07-29T14:23:07;6.60;;;2.33;;
48861;SDS011;34681;49.188;-0.374;2022-07-29T14:25:33;3.00;;;2.30;;
48861;SDS011;34681;49.188;-0.374;2022-07-29T14:27:58;5.13;;;2.17;;
48861;SDS011;34681;49.188;-0.374;2022-07-29T14:30:23;6.83;;;2.70;;
48861;SDS011;34681;49.188;-0.374;2022-07-29T14:32:49;3.00;;;2.33;;
48861;SDS011;34681;49.188;-0.374;2022-07-29T14:35:14;2.10;;;2.00;;
48861;SDS011;34681;49.188;-0.374;2022-07-29T14:37:40;3.50;;;2.07;;
48861;SDS011;34681;49.188;-0.374;2022-07-29T14:40:06;5.03;;;3.00;;
48861;SDS011;34681;49.188;-0.374;2022-07-29T14:42:32;3.77;;;2.40;;
48861;SDS011;34681;49.188;-0.374;2022-07-29T14:44:58;2.37;;;2.17;;
48861;SDS011;34681;49.188;-0.374;2022-07-29T14:47:23;3.07;;;1.97;;
48861;SDS011;34681;49.188;-0.374;2022-07-29T14:49:49;5.77;;;2.67;;
48861;SDS011;34681;49.188;-0.374;2022-07-29T14:52:14;8.43;;;2.77;;
48861;SDS011;34681;49.188;-0.374;2022-07-29T14:54:40;3.90;;;2.30;;
48861;SDS011;34681;49.188;-0.374;2022-07-29T14:57:05;3.17;;;1.80;;
48861;SDS011;34681;49.188;-0.374;2022-07-29T14:59:30;3.40;;;2.40;;
48861;SDS011;34681;49.188;-0.374;2022-07-29T15:01:56;3.77;;;2.50;;
48861;SDS011;34681;49.188;-0.374;2022-07-29T15:04:21;5.20;;;2.23;;
48861;SDS011;34681;49.188;-0.374;2022-07-29T15:06:47;2.43;;;2.20;;
48861;SDS011;34681;49.188;-0.374;2022-07-29T15:09:12;4.50;;;2.30;;
48861;SDS011;34681;49.188;-0.374;2022-07-29T15:11:38;2.77;;;2.33;;
48861;SDS011;34681;49.188;-0.374;2022-07-29T15:14:03;2.90;;;2.10;;